Time,TemperatureF,DewpointF,PressureIn,WindDirection,WindDirectionDegrees,WindSpeedMPH,WindSpeedGustMPH,Humidity,HourlyPrecipIn,Conditions,Clouds,dailyrainin,SoftwareType,DateUTC
2013-06-09 00:00:00,67.6,63.6,30.16,North,-999,0.0,0.0,87,0.00,,,-99.99,WeatherLink 5.4,2013-06-09 04:00:00,
2013-06-09 00:30:00,66.9,63.2,30.17,NNW,337,0.0,4.0,88,0.00,,,-99.99,WeatherLink 5.4,2013-06-09 04:30:00,
2013-06-09 01:00:00,68.1,64.7,30.17,ESE,112,2.0,5.0,89,0.00,,,-99.99,WeatherLink 5.4,2013-06-09 05:00:00,
2013-06-09 01:30:00,68.2,65.5,30.16,SE,135,3.0,5.0,91,0.00,,,-99.99,WeatherLink 5.4,2013-06-09 05:30:00,
2013-06-09 02:00:00,68.1,66.0,30.16,SE,135,1.0,4.0,93,0.00,,,-99.99,WeatherLink 5.4,2013-06-09 06:00:00,
2013-06-09 02:30:00,68.1,66.0,30.15,SE,135,2.0,5.0,93,0.00,,,-99.99,WeatherLink 5.4,2013-06-09 06:30:00,
2013-06-09 03:00:00,67.9,66.1,30.15,SE,135,2.0,5.0,94,0.00,,,-99.99,WeatherLink 5.4,2013-06-09 07:00:00,
2013-06-09 03:30:00,67.9,66.1,30.15,SE,135,1.0,4.0,94,0.00,,,-99.99,WeatherLink 5.4,2013-06-09 07:30:00,
2013-06-09 04:00:00,67.8,66.3,30.15,North,-999,0.0,1.0,95,0.00,,,-99.99,WeatherLink 5.4,2013-06-09 08:00:00,
2013-06-09 04:30:00,67.7,66.2,30.15,SE,135,0.0,2.0,95,0.00,,,-99.99,WeatherLink 5.4,2013-06-09 08:30:00,
2013-06-09 05:00:00,67.6,66.1,30.16,North,-999,0.0,1.0,95,0.00,,,-99.99,WeatherLink 5.4,2013-06-09 09:00:00,
2013-06-09 05:30:00,67.4,65.6,30.16,SE,135,1.0,4.0,94,0.00,,,-99.99,WeatherLink 5.4,2013-06-09 09:30:00,
2013-06-09 06:00:00,68.2,66.1,30.17,SE,135,1.0,3.0,93,0.00,,,-99.99,WeatherLink 5.4,2013-06-09 10:00:00,
2013-06-09 06:30:00,68.5,66.1,30.17,SE,135,0.0,2.0,92,0.00,,,-99.99,WeatherLink 5.4,2013-06-09 10:30:00,
2013-06-09 07:00:00,68.8,66.4,30.17,SE,135,0.0,4.0,92,0.00,,,-99.99,WeatherLink 5.4,2013-06-09 11:00:00,
2013-06-09 07:30:00,69.4,67.0,30.17,SE,135,0.0,2.0,92,0.00,,,-99.99,WeatherLink 5.4,2013-06-09 11:30:00,
2013-06-09 08:00:00,69.5,67.4,30.17,SE,135,0.0,3.0,93,0.00,,,-99.99,WeatherLink 5.4,2013-06-09 12:00:00,
2013-06-09 08:05:00,69.5,67.4,30.17,SE,125,4.0,4.0,93,0.00,,OVC,0.00,VWS V14.01,2013-06-09 12:05:00,
2013-06-09 08:30:00,69.7,67.3,30.17,SE,135,2.0,5.0,92,0.00,,,-99.99,WeatherLink 5.4,2013-06-09 12:30:00,
2013-06-09 09:00:00,70.1,67.3,30.18,SSE,157,4.0,10.0,91,0.00,,,-99.99,WeatherLink 5.4,2013-06-09 13:00:00,
2013-06-09 09:30:00,70.2,67.4,30.18,SSE,157,4.0,7.0,91,0.00,,,-99.99,WeatherLink 5.4,2013-06-09 13:30:00,
2013-06-09 10:00:00,70.8,67.7,30.18,SSE,157,3.0,6.0,90,0.00,,,-99.99,WeatherLink 5.4,2013-06-09 14:00:00,
2013-06-09 10:01:00,70.8,67.7,30.18,SSE,157,3.0,6.0,90,0.00,,,-99.99,WeatherLink 5.4,2013-06-09 14:01:00,
2013-06-09 10:30:00,71.1,68.0,30.17,SSE,157,3.0,6.0,90,0.00,,,-99.99,WeatherLink 5.4,2013-06-09 14:30:00,
2013-06-09 11:00:00,72.3,67.5,30.17,SSE,157,4.0,8.0,85,0.00,,,-99.99,WeatherLink 5.4,2013-06-09 15:00:00,
2013-06-09 11:30:00,73.2,67.4,30.16,SSE,157,2.0,5.0,82,0.00,,,-99.99,WeatherLink 5.4,2013-06-09 15:30:00,
2013-06-09 11:31:00,73.2,67.4,30.16,SSE,157,2.0,5.0,82,0.00,,,-99.99,WeatherLink 5.4,2013-06-09 15:31:00,
2013-06-09 12:00:00,75.2,67.1,30.16,SSE,157,3.0,7.0,76,0.00,,,-99.99,WeatherLink 5.4,2013-06-09 16:00:00,
2013-06-09 12:30:00,75.6,67.9,30.16,SSE,157,6.0,11.0,77,0.00,,,-99.99,WeatherLink 5.4,2013-06-09 16:30:00,
2013-06-09 13:00:00,75.4,69.5,30.14,SSE,157,6.0,10.0,82,0.00,,,-99.99,WeatherLink 5.4,2013-06-09 17:00:00,
2013-06-09 13:30:00,74.9,67.2,30.13,SE,135,6.0,11.0,77,0.00,,,-99.99,WeatherLink 5.4,2013-06-09 17:30:00,
2013-06-09 13:31:00,74.9,67.2,30.13,SE,135,6.0,11.0,77,0.00,,,-99.99,WeatherLink 5.4,2013-06-09 17:31:00,
2013-06-09 14:00:00,76.5,68.4,30.12,SE,135,6.0,10.0,76,0.00,,,-99.99,WeatherLink 5.4,2013-06-09 18:00:00,
2013-06-09 14:30:00,76.2,69.2,30.11,SE,135,6.0,12.0,79,0.00,,,-99.99,WeatherLink 5.4,2013-06-09 18:30:00,
2013-06-09 15:00:00,73.7,69.6,30.12,SE,135,6.0,12.0,87,0.00,,,-99.99,WeatherLink 5.4,2013-06-09 19:00:00,
2013-06-09 15:01:00,73.7,69.6,30.12,SE,135,6.0,12.0,87,0.00,,,-99.99,WeatherLink 5.4,2013-06-09 19:01:00,
2013-06-09 15:30:00,70.1,69.2,30.11,SSE,157,3.0,7.0,97,0.00,,,-99.99,WeatherLink 5.4,2013-06-09 19:30:00,
2013-06-09 16:00:00,70.5,69.0,30.11,SSE,157,1.0,6.0,95,0.00,,,-99.99,WeatherLink 5.4,2013-06-09 20:00:00,
2013-06-09 16:01:00,70.5,69.0,30.11,SSE,157,1.0,6.0,95,0.00,,,-99.99,WeatherLink 5.4,2013-06-09 20:01:00,
2013-06-09 16:30:00,72.2,68.8,30.09,SSE,157,3.0,8.0,89,0.00,,,-99.99,WeatherLink 5.4,2013-06-09 20:30:00,
2013-06-09 17:00:00,73.1,68.7,30.09,SSE,157,3.0,8.0,86,0.00,,,-99.99,WeatherLink 5.4,2013-06-09 21:00:00,
2013-06-09 17:30:00,72.3,67.5,30.09,SSE,157,4.0,11.0,85,0.00,,,-99.99,WeatherLink 5.4,2013-06-09 21:30:00,
2013-06-09 18:00:00,70.5,69.0,30.09,SSE,157,6.0,10.0,95,0.00,,,-99.99,WeatherLink 5.4,2013-06-09 22:00:00,
2013-06-09 18:30:00,67.9,67.6,30.09,SE,135,4.0,6.0,99,0.00,,,-99.99,WeatherLink 5.4,2013-06-09 22:30:00,
2013-06-09 19:00:00,67.4,66.8,30.09,SSE,157,4.0,9.0,98,0.00,,,-99.99,WeatherLink 5.4,2013-06-09 23:00:00,
2013-06-09 19:05:00,67.5,66.6,30.09,SSE,152,3.0,5.0,97,0.00,,OVC,0.00,VWS V14.01,2013-06-09 23:05:00,
2013-06-09 19:30:00,67.1,66.8,30.10,SE,135,4.0,8.0,99,0.00,,,-99.99,WeatherLink 5.4,2013-06-09 23:30:00,
2013-06-09 19:31:00,67.1,66.8,30.10,SE,135,4.0,8.0,99,0.00,,,-99.99,WeatherLink 5.4,2013-06-09 23:31:00,
2013-06-09 20:00:00,66.4,66.4,30.10,SSE,157,4.0,7.0,100,0.00,,,-99.99,WeatherLink 5.4,2013-06-10 00:00:00,
2013-06-09 20:30:00,66.5,66.5,30.11,SE,135,4.0,6.0,100,0.00,,,-99.99,WeatherLink 5.4,2013-06-10 00:30:00,
2013-06-09 21:00:00,66.5,66.5,30.10,SE,135,3.0,7.0,100,0.00,,,-99.99,WeatherLink 5.4,2013-06-10 01:00:00,
2013-06-09 21:30:00,66.0,66.0,30.09,SSE,157,2.0,6.0,100,0.00,,,-99.99,WeatherLink 5.4,2013-06-10 01:30:00,
2013-06-09 22:00:00,65.9,65.9,30.09,SE,135,3.0,7.0,100,0.00,,,-99.99,WeatherLink 5.4,2013-06-10 02:00:00,
2013-06-09 22:01:00,65.9,65.9,30.09,SE,135,3.0,7.0,100,0.00,,,-99.99,WeatherLink 5.4,2013-06-10 02:01:00,
2013-06-09 22:30:00,65.9,65.9,30.09,SSE,157,3.0,6.0,100,0.00,,,-99.99,WeatherLink 5.4,2013-06-10 02:30:00,
2013-06-09 23:00:00,66.1,66.1,30.10,SE,135,2.0,5.0,100,0.00,,,-99.99,WeatherLink 5.4,2013-06-10 03:00:00,
2013-06-09 23:30:00,66.1,66.1,30.09,SE,135,2.0,6.0,100,0.00,,,-99.99,WeatherLink 5.4,2013-06-10 03:30:00,